Abu Simbel Airport

Airport
ICAO code: 
HEBL
IATA Code: 
ABS
Summary
ICAO Region: 
AFI
Territory: 
Location: 
Abu Simbel, Aswan
Serving: 
Abu Simbel
Elevation: 
616 ft
Coordinates: 
Aerial View: 
22° 22' 33.431" N, 31° 36' 42.199" E
Metar
Observation
HEBL 240700Z 01008KT CAVOK 13/01 Q1022 NOSIG
Station
ABU SIMBEL (RUIN
Date/Time
2022-01-24 07:00:00
Wind direction
10°
Wind speed
08 kts
Lowest cloud amount
clouds and visibility OK
Temperature
13°C
Dew point
1°C
Humidity
43%
QNH
1022 hPa
Weather condition
n/a

Runways

Designator Length Width Surface Rops
15/33 3000 45 ASP Yes/Yes
Airport map: 
Aerial View: 

SKYbrary Partners:

Safety knowledge contributed by: